Página principal
METAR-TAF:

METAR-TAF

Aeroportos :

Teerã, Irão

Aeroporto Internacional de Mehrabad

latitude: 35-41N, longitude: 051-21E, altura: 1204 m

Observação actual do tempo

O boletim foi feito há 38 minutos, às 11:30 UTC
Vento 8 kt de oes-sudoeste
Temperatura 12°C
Humidade 17%
Pressão 1023 hPa
Visibilidade 10 km ou mais
sem nuvens abaixo de 1500 metros e sem cumulonimbus

METAR: OIII 121130Z 25008KT CAVOK 12/M12 Q1023 A3021 NOSIG

Hora: 15:38 (12:08 UTC)

Previsão

O boletim foi feito há 1 hora e 8 minutos, às 11:00 UTC
Previsão válida de 12 às 12 UTC a 13 às 18 UTC
Vento 8 kt de es-sudeste
Visibilidade: 8000 m
Tornando-se
de 13 às 02 UTC a 13 às 04 UTC
Visibilidade: 3000 m
bruma
Tornando-se
de 13 às 08 UTC a 13 às 10 UTC
Visibilidade: 6000 m

TAF: OIII 121100Z 1212/1318 11004MPS 8000 NSC BECMG 1302/1304 3000 HZ BECMG 1308/1310 6000

Observações e previsões do tempo de mais de 4000 aeroportos (mensagens METAR e TAF).

As estações disponíveis são os pontos amarelos e vermelhos sobre o mapa.

Mova o rato sobre o mapa para ver o nome da estação.

Depois clique no ponto para visualizar as observações e previsões meteorológicas.

Para alterar o mapa : clique nos botões verdes com uma cruz preta para aumentar o zoom; no botão verde com uma pitada de zoom; ou nas setas verdes para mapas adjacentes.


METAR-TAF: